Valpo, Indiana
Current Conditions -  °F | °C
As of 3:56 AM on Friday 28 Nov 2014 (Local Time) from KVPZ Reporting Station
Overcast Overcast  
Wind Chill: 19°   Ceiling: 10000
Heat Index: 19°   Visibility: 10mi
Dew Point: 14°   Wind: 0mph
Humidity: 81%   Direction: NA
Pressure: 30.37"   Gusts: NA
Location:  41.4608°N, 87.0555°W
Report Text: KVPZ 280956Z AUTO 00000KT 10SM OVC100 M07/M10 A3037 RMK AO2 SLP295 T10721100 TSNO $
Loading
Personal Weather Stations






























Interactive Weather Map New forecast layout! Learn more

10-Day Weather Forecast

Advertisements
Track Severe Weather on mobile